Tiempo atmosférico en la estación meteorológica de Fuengirola, Málaga (3 m.)



Fecha
DESCASC
Temp. máxima en grados centígrados (hora)
DESCASC
Temp. mínima en grados centígrados (hora)
DESCASC
Temp. media en grados centígrados
DESCASC
Racha de viento máxima en m/sg (hora)
DESCASC
Velocidad máxima media en intervalos de 10 minutos(hora)
DESCASC
Precipitaciones diarias en mm
DESCASC
Precipitaciones de 00:00 a 06:00 en mm
DESCASC
Precipitaciones de 06:00 a 12:00 en mm
DESCASC
Precipitaciones de 12:00 a 18:00 en mm
DESCASC
Precipitaciones de 18:00 a 24:00 en mm
DESCASC
17-09-2020 25.8 (17:40) 22.6 (23:59) 24.2 8.89 (07:30) 6.39 (07:30) 2.9 0 0 0 2.9
16-09-2020 26 (15:40) 21.4 (07:10) 23.7 6.94 (23:59) 4.17 (23:50) 0 0 0 0 0
15-09-2020 27.1 (14:30) 23 (07:00) 25.1 5 (09:50) 3.33 (11:30) 0 0 0 0 0
14-09-2020 26.9 (17:30) 23.5 (00:00) 25.2 6.11 (00:50) 2.22 (01:30) 0 0 0 0 0
13-09-2020 27.9 (15:00) 22.9 (00:00) 25.4 4.72 (14:30) 2.78 (14:30) 0 0 0 0 0
12-09-2020 28.6 (17:00) 21.5 (00:00) 25.1 5.28 (22:00) 3.61 (22:00) 0 0 0 0 0
11-09-2020 -- (--) -- (--) -- 5.83 (13:00) 4.44 (13:10) 0 0 0 0 0
10-09-2020 -- (--) -- (--) -- 5.83 (13:20) 3.89 (16:20) 0 0 0 0 0
09-09-2020 -- (--) -- (--) -- 5.83 (00:10) 3.89 (11:50) 0 0 0 0 0
08-09-2020 -- (--) -- (--) -- 6.11 (20:30) 4.44 (20:20) 0 0 0 0 0
07-09-2020 25 (15:10) 21.6 (07:10) 23.3 7.22 (15:40) 4.72 (14:30) 0 0 0 0 0
06-09-2020 26.6 (17:40) 22.4 (00:00) 24.5 5.28 (04:30) 3.61 (05:00) 0 0 0 0 0
05-09-2020 26.2 (16:50) 22.5 (00:00) 24.4 8.06 (12:30) 3.33 (18:30) 0 0 0 0 0
04-09-2020 26.6 (17:50) 21.6 (00:00) 24.1 5.28 (00:10) 3.33 (00:10) 0 0 0 0 0
03-09-2020 25.5 (17:30) 21.2 (00:00) 23.4 8.61 (21:30) 5 (22:20) 0 0 0 0 0
02-09-2020 24.9 (17:20) 19.1 (00:00) 22 4.72 (19:40) 3.06 (20:00) 0 0 0 0 0
01-09-2020 24.8 (14:20) 20.9 (00:00) 22.8 7.22 (11:40) 3.33 (00:20) 0 0 0 0 0
31-08-2020 25.3 (16:50) 21.5 (00:00) 23.4 6.39 (13:10) 4.17 (19:30) 0 0 0 0 0
30-08-2020 28.2 (00:00) 22.3 (00:00) 25.3 11.39 (08:00) 7.5 (08:50) 0 0 0 0 0
29-08-2020 30.5 (18:40) 20.8 (00:00) 25.6 9.44 (18:10) 3.61 (16:30) 0 0 0 0 0
28-08-2020 34.1 (20:20) 21.4 (00:00) 27.7 10.56 (12:20) 3.33 (12:10) 0 0 0 0 0
27-08-2020 25.6 (16:40) 22.1 (00:00) 23.9 5.56 (18:20) 3.89 (18:50) 0 0 0 0 0
26-08-2020 26.1 (16:00) 22.1 (00:00) 24.1 6.11 (17:10) 4.17 (17:10) 0 0 0 0 0
25-08-2020 27.6 (14:50) 23.9 (00:00) 25.8 3.89 (02:30) 2.5 (02:20) 0 0 0 0 0
24-08-2020 29.1 (17:30) 23.3 (00:00) 26.2 5 (01:40) 3.61 (01:40) 0 0 0 0 0
23-08-2020 28 (17:50) 22.1 (00:00) 25.1 7.5 (12:20) 4.72 (11:20) 0 0 0 0 0
22-08-2020 32.4 (17:10) 20.3 (00:00) 26.4 5 (14:10) 3.06 (14:10) 0 0 0 0 0
21-08-2020 32.5 (17:20) 19.5 (00:00) 26 7.22 (18:00) 3.89 (15:40) 0 0 0 0 0

Gráficas

Temp. máximas Temp. mínimas Temp. medias Precipitaciones Rachas de viento máximas Velocidades máximas media en intervalos de 10 minutos

Datos horarios

Fecha y hora oficial Temperatura (ºC) Velocidad del viento (km/h) Dirección del viento Racha (km/h) Dirección de racha Precipitación (mm) Presión (hPa) Tendencia (hPa) Humedad (%)
2020-09-19 23:00:00 23.4 0 Calma 9 Sur 0 1017.4 1.6 77
2020-09-19 22:00:00 24.1 0 Calma 15 Oeste 0 1016.8 1.4 76
2020-09-19 21:00:00 24.7 5 Oeste 16 Oeste 0 1016 0.9 73
2020-09-19 20:00:00 25 8 Oeste 23 Oeste 0 1015.8 0.1 73
2020-09-19 19:00:00 26.1 8 Oeste 28 Oeste 0 1015.4 -0.8 69
2020-09-19 18:00:00 26.6 8 Oeste 31 Oeste 0 1015.1 -1.6 67
2020-09-19 17:00:00 24.6 13 Sudoeste 25 Sudoeste 0 1015.7 -1.5 82
2020-09-19 16:00:00 24.3 7 Sudoeste 29 Sudoeste 0 1016.2 -1.5 79
2020-09-19 15:00:00 24.1 9 Oeste 34 Oeste 0 1016.7 -1 76
2020-09-19 14:00:00 23.7 6 Sudoeste 23 Oeste 0 1017.2 -0.2 79
2020-09-19 13:00:00 23.2 7 Sudoeste 27 Sudoeste 0 1017.7 0.5 84
2020-09-19 12:00:00 22.7 8 Sudoeste 29 Oeste 0 1017.7 0.9 84
2020-09-19 11:00:00 22.8 3 Sudoeste 12 Oeste 0 1017.4 -- 82
2020-09-19 10:00:00 21.5 0 Calma 10 Oeste 0 1017.2 -- 89
2020-09-19 09:00:00 20.6 7 Oeste 13 Oeste 0 1016.8 -- 88
2020-09-19 08:00:00 20.6 0 Calma 9 Noroeste 0 1016.6 -- 88
2020-09-19 07:00:00 20.6 4 Oeste 10 Oeste 0 1016.2 -- 88
2020-09-19 06:00:00 20.8 0 Calma 9 Noroeste 0 1015.9 -- 87
2020-09-19 05:00:00 21.4 3 Oeste 12 Oeste 0 1015.8 -- 88
2020-09-19 04:00:00 21.6 3 Oeste 13 Oeste 0 1016 -- 84
2020-09-19 03:00:00 21.6 4 Oeste 13 Oeste 0 1015.9 -- 84
2020-09-19 02:00:00 21.6 3 Oeste 12 Noroeste 0 1016 -- 87
2020-09-19 01:00:00 22 4 Noroeste 15 Oeste 0 1016.2 -- 87
2020-09-19 00:00:00 22.3 5 Oeste 14 Oeste 0 1016.5 -- 87
2020-09-18 23:00:00 22.8 3 Sudoeste 15 Oeste 0 1016.2 -- 84
2020-09-18 22:00:00 23.3 5 Oeste 20 Oeste 0 1015.7 -- 81
2020-09-18 21:00:00 23.5 8 Oeste 19 Oeste 0 1014.8 -- 79
2020-09-18 20:00:00 23.8 5 Sur 19 Sudeste 0 1014.2 -- 87
2020-09-18 19:00:00 23.7 10 Este 18 Este 0 1013.8 -- 95
2020-09-18 18:00:00 24.3 9 Sur 15 Sur 3.3 1013.5 -- 96
2020-09-18 17:00:00 23.7 0 Calma 22 Sudeste 0 1013.6 -- 94
2020-09-18 16:00:00 23.9 14 Sudeste 22 Sudeste 0 1013.4 -- 95
2020-09-18 15:00:00 23.3 20 Sudeste 29 Sudeste 0 1013.8 -- 96
2020-09-18 14:00:00 23.4 18 Sur 33 Sur 0 1014 -- 95
2020-09-18 13:00:00 23.4 26 Sur 37 Sur 0 1013.8 -- 93
2020-09-18 12:00:00 23.4 27 Sur 41 Sudeste 0 1014 -- 94
2020-09-18 11:00:00 22.7 22 Este 36 Este 0 1013.3 -- 95
2020-09-18 10:00:00 22.5 26 Este 44 Sudeste 0.2 1012.2 -- 95
2020-09-18 09:00:00 22.3 13 Este 27 Sudeste 0 1012.5 -- 95
2020-09-18 08:00:00 22.4 17 Sudeste 28 Sudeste 0 1012.5 -- 95
2020-09-18 07:00:00 21.9 19 Sudeste 26 Sudeste 0 1011.9 -- 93
2020-09-18 06:00:00 21.8 12 Este 24 Sudeste 0 1012 -- 93
2020-09-18 05:00:00 21.6 16 Este 23 Sudeste 0 1012.3 -- 93
2020-09-18 04:00:00 21.9 14 Sudeste 27 Sur 0 1013.7 -- 93
2020-09-18 03:00:00 21.8 20 Sudoeste 29 Sudoeste 1.2 1014.4 -- 92
2020-09-18 02:00:00 23 5 Sudoeste 28 Sudoeste 0.2 1015 -- 85
2020-09-18 01:00:00 22.7 11 Sur 14 Sur 0.5 1014.9 -- 93
2020-09-18 00:00:00 22.6 0 Calma 8 Sudeste 0 1015 -- 89
2020-09-17 23:00:00 22.9 3 Nordeste 10 Noroeste 0.1 1014.6 -- 87
2020-09-17 22:00:00 23.3 2 Oeste 12 Oeste 0.2 1014.4 -- 85
2020-09-17 21:00:00 23.4 2 Sudoeste 15 Sur 0.6 1013.9 -- 89
2020-09-17 20:00:00 24 3 Este 12 Este 2 1013.4 -- 94
2020-09-17 19:00:00 25.1 6 Este 10 Sudeste 0 1013.1 -- 92
2020-09-17 18:00:00 25.7 6 Este 24 Este 0 1012.8 -- 87
2020-09-17 17:00:00 25.7 10 Este 20 Este 0 1012.2 -- 90
2020-09-17 16:00:00 25.4 16 Este 25 Este 0 1012.2 -- 93
2020-09-17 15:00:00 25.2 17 Este 26 Este 0 1012.7 -- 93
2020-09-17 14:00:00 25.4 19 Este 30 Este 0 1013.1 -- 93
2020-09-17 13:00:00 24.8 19 Este 28 Este 0 1013.9 -- 95
2020-09-17 12:00:00 24.5 18 Este 29 Este 0 1014.3 -- 98
2020-09-17 11:00:00 24.4 18 Este 29 Este 0 1014.2 -- 98
2020-09-17 10:00:00 24.2 18 Este 27 Este 0 1014.1 -- 98
2020-09-17 09:00:00 24.2 17 Este 30 Este 0 1013.9 -- 99
2020-09-17 08:00:00 24 21 Este 32 Este 0 1013.6 -- 98
2020-09-17 07:00:00 23.6 19 Este 26 Nordeste 0 1013.5 -- 98
2020-09-17 06:00:00 23.7 13 Este 18 Este 0 1014 -- 95
2020-09-17 05:00:00 23.7 9 Este 12 Este 0 1013.9 -- 95
2020-09-17 04:00:00 23.6 6 Este 9 Este 0 1014.4 -- 95
2020-09-17 03:00:00 23.6 0 Calma 12 Este 0 1015.1 -- 95
2020-09-17 02:00:00 23.7 9 Sudeste 18 Este 0 1015.1 -- 94
2020-09-17 01:00:00 23.7 11 Este 23 Este 0 1015.7 -- 94
2020-09-17 00:00:00 23.8 15 Este 25 Este 0 1015.1 -- 94
2020-09-16 23:00:00 23.9 10 Este 18 Este 0 1015.4 -- 91
2020-09-16 22:00:00 23.7 0 Calma 6 Este 0 1015.9 -- 91
2020-09-16 21:00:00 23.9 3 Este 6 Este 0 1015.3 -- 90
2020-09-16 20:00:00 24.8 4 Sudeste 8 Sur 0 1015.3 -- 89
2020-09-16 19:00:00 25.1 5 Sur 8 Sur 0 1015.2 -- 87
2020-09-16 18:00:00 25.5 4 Sudeste 8 Este 0 1015 -- 85
2020-09-16 17:00:00 25.9 5 Este 12 Sudeste 0 1014.8 -- 85
2020-09-16 16:00:00 25.7 11 Sudeste 17 Este 0 1015.4 -- 85
2020-09-16 15:00:00 25.7 8 Este 12 Sudeste 0 1016.2 -- 87
2020-09-16 14:00:00 25.4 7 Sudeste 12 Sudeste 0 1017.1 -- 87
2020-09-16 13:00:00 24.9 6 Sudeste 9 Sudeste 0 1017.8 -- 90
2020-09-16 12:00:00 24.3 6 Sur 9 Sur 0 1018 -- 93
2020-09-16 11:00:00 24.1 3 Sudeste 8 Sur 0 1017.9 -- 93
2020-09-16 10:00:00 23.5 0 Calma 9 Oeste 0 1017.7 -- 91
2020-09-16 09:00:00 22.1 4 Noroeste 10 Oeste 0 1017.5 -- 92
2020-09-16 08:00:00 22 3 Noroeste 8 Noroeste 0 1017.2 -- 92
2020-09-16 07:00:00 21.5 5 Oeste 11 Oeste 0 1017.6 -- 92
2020-09-16 06:00:00 22 4 Noroeste 7 Noroeste 0 1017.6 -- 93
2020-09-16 05:00:00 21.9 6 Noroeste 12 Oeste 0 1018.2 -- 93
2020-09-16 04:00:00 22.9 0 Calma 6 Nordeste 0 1018.2 -- 95
2020-09-16 03:00:00 23.4 4 Nordeste 7 Nordeste 0 1018.7 -- 93
2020-09-16 02:00:00 23.3 0 Calma 6 Oeste 0 1019 -- 91
2020-09-16 01:00:00 23.1 0 Calma 8 Oeste 0 1019.2 -- 93
2020-09-16 00:00:00 23.6 3 Sudeste 6 Sudeste 0 1019.2 -- 93
2020-09-15 23:00:00 23.8 0 Calma 7 Sudeste 0 1019 -- 92
2020-09-15 22:00:00 24.2 0 Calma 7 Sudeste 0 1018.7 -- 90
2020-09-15 21:00:00 24.9 2 Sudeste 7 Sudeste 0 1018 -- 86
2020-09-15 20:00:00 26.4 4 Sudeste 11 Sudeste 0 1017.9 -- 83
2020-09-15 19:00:00 26.8 9 Sudeste 12 Sudeste 0 1017.7 -- 82
2020-09-15 18:00:00 26.9 8 Sudeste 13 Sudeste 0 1018 -- 82
2020-09-15 17:00:00 26.7 10 Sudeste 13 Sudeste 0 1018.5 -- 82
2020-09-15 16:00:00 27.1 7 Sudeste 11 Sudeste 0 1019.1 -- 81
2020-09-15 15:00:00 26.8 9 Sudeste 13 Sudeste 0 1019.8 -- 81
2020-09-15 14:00:00 26.7 6 Este 12 Este 0 1020.4 -- 81
2020-09-15 13:00:00 26.4 7 Este 13 Este 0 1020.9 -- 82
2020-09-15 12:00:00 25.8 9 Este 18 Este 0 1021.1 -- 82
2020-09-15 11:00:00 25.2 10 Este 13 Este 0 1020.7 -- 84
2020-09-15 10:00:00 24.6 9 Este 18 Este 0 1020.2 -- 88
2020-09-15 09:00:00 23.5 2 Noroeste 6 Noroeste 0 1019.7 -- 87
2020-09-15 08:00:00 23.5 2 Nordeste 7 Nordeste 0 1019.2 -- 90
2020-09-15 07:00:00 23.1 2 Nordeste 6 Este 0 1019 -- 90
2020-09-15 06:00:00 23.6 3 Nordeste 11 Este 0 1019.1 -- 90
2020-09-15 05:00:00 23.9 5 Nordeste 9 Nordeste 0 1019.3 -- 85
2020-09-15 04:00:00 23.6 4 Noroeste 9 Noroeste 0 1019.6 -- 84
2020-09-15 03:00:00 23.8 4 Norte 7 Norte 0 1020.3 -- 85
2020-09-15 02:00:00 24 4 Oeste 9 Oeste 0 1020.4 -- 84
2020-09-15 01:00:00 24.1 0 Calma 12 Este 0 1020.4 -- 86
2020-09-15 00:00:00 24.1 5 Nordeste 10 Nordeste 0 1020.3 -- 87
2020-09-14 23:00:00 24.1 5 Nordeste 9 Nordeste 0 1020.6 -- 88
2020-09-14 22:00:00 24.1 0 Calma 9 Sur 0 1019.9 -- 88
2020-09-14 21:00:00 24.4 5 Sudoeste 9 Sudoeste 0 1019.3 -- 88
2020-09-14 20:00:00 25.8 0 Calma 10 Este 0 1018.5 -- 81
2020-09-14 19:00:00 26.1 3 Este 12 Sudeste 0 1018.5 -- 81
2020-09-14 18:00:00 26.7 5 Sudeste 14 Sudeste 0 1018.9 -- 79
2020-09-14 17:00:00 26.5 5 Nordeste 12 Este 0 1019.2 -- 79
2020-09-14 16:00:00 25.9 6 Este 20 Este 0 1020.1 -- 80
2020-09-14 15:00:00 26.2 3 Sudeste 11 Sudeste 0 1020.5 -- 77
2020-09-14 14:00:00 26 0 Calma 8 Sudeste 0 1020.7 -- 81
2020-09-14 13:00:00 26 3 Sudoeste 8 Sudeste 0 1021.4 -- 81
2020-09-14 12:00:00 26 4 Sur 10 Sur 0 1021.4 -- 77
2020-09-14 11:00:00 25.7 4 Este 8 Este 0 1020.9 -- 76
2020-09-14 10:00:00 24.8 0 Calma 8 Oeste 0 1020.4 -- 79
2020-09-14 09:00:00 24.2 3 Noroeste 8 Este 0 1019.5 -- 79
2020-09-14 08:00:00 24.5 3 Este 8 Este 0 1018.8 -- 79
2020-09-14 07:00:00 23.6 2 Noroeste 6 Oeste 0 1018.5 -- 81
2020-09-14 06:00:00 23.7 0 Calma 6 Oeste 0 1018.4 -- 82
2020-09-14 05:00:00 23.9 3 Nordeste 9 Norte 0 1018.6 -- 82
2020-09-14 04:00:00 23.8 2 Norte 9 Nordeste 0 1019.1 -- 82
2020-09-14 03:00:00 24.4 4 Nordeste 12 Este 0 1019.7 -- 82
2020-09-14 02:00:00 24.5 2 Nordeste 13 Nordeste 0 1020.3 -- 80
2020-09-14 01:00:00 24.7 6 Nordeste 22 Sudeste 0 1020.1 -- 78
2020-09-14 00:00:00 24.6 2 Nordeste 9 Sur 0 1020.8 -- 78
2020-09-13 23:00:00 24.9 2 Oeste 15 Oeste 0 1021.2 -- 76
2020-09-13 22:00:00 24.7 2 Oeste 10 Sudoeste 0 1020.2 -- 77
2020-09-13 21:00:00 25.2 3 Sudoeste 12 Sur 0 1018.9 -- 75
2020-09-13 20:00:00 25.6 3 Sudoeste 12 Sudoeste 0 1018.6 -- 77
2020-09-13 19:00:00 26.9 5 Sudoeste 16 Sur 0 1018.6 -- 72
2020-09-13 18:00:00 27.4 3 Sudeste 10 Nordeste 0 1018.5 -- 67
2020-09-13 17:00:00 27.6 9 Nordeste 14 Nordeste 0 1018.8 -- 66
2020-09-13 16:00:00 27.7 5 Nordeste 12 Este 0 1019.3 -- 65
2020-09-13 15:00:00 27.8 8 Este 17 Este 0 1019.5 -- 67
2020-09-13 14:00:00 27.4 6 Este 12 Este 0 1019.8 -- 64
2020-09-13 13:00:00 26.3 0 Calma 7 Sudeste 0 1020.3 -- 68
2020-09-13 12:00:00 26.6 3 Este 11 Este 0 1020 -- 68
2020-09-13 11:00:00 26.2 5 Este 10 Este 0 1019.4 -- 67
2020-09-13 10:00:00 25.3 2 Noroeste 6 Noroeste 0 1018.7 -- 73
2020-09-13 09:00:00 24.2 0 Calma 10 Oeste 0 1017.9 -- 75
2020-09-13 08:00:00 23.6 7 Oeste 16 Oeste 0 1017.8 -- 74
2020-09-13 07:00:00 23.1 5 Noroeste 12 Oeste 0 1017.3 -- 74
2020-09-13 06:00:00 23.2 6 Noroeste 11 Oeste 0 1017 -- 74
2020-09-13 05:00:00 23.4 3 Oeste 7 Oeste 0 1017 -- 74
2020-09-13 04:00:00 23.8 3 Noroeste 9 Noroeste 0 1017 -- 73
2020-09-13 03:00:00 24.2 3 Noroeste 7 Noroeste 0 1017.7 -- 73
2020-09-13 02:00:00 24.6 0 Calma 8 Nordeste 0 1017.8 -- 74
2020-09-13 01:00:00 24.7 3 Nordeste 10 Nordeste 0 1017.9 -- 73
2020-09-13 00:00:00 24.9 7 Nordeste 13 Nordeste 0 1017.8 -- 72
2020-09-12 23:00:00 25 5 Este 15 Este 0 1017.6 -- 71
2020-09-12 22:00:00 25.3 13 Este 19 Este 0 1016.7 -- 68
2020-09-12 21:00:00 26 9 Este 18 Este 0 1015.6 -- 63
2020-09-12 20:00:00 26.9 7 Este 14 Este 0 1015.3 -- 62
2020-09-12 19:00:00 27.3 11 Nordeste 16 Este 0 1015.1 -- 60
2020-09-12 18:00:00 27.9 10 Nordeste 15 Este 0 1014.9 -- 62
2020-09-12 17:00:00 28.4 8 Este 13 Este 0 1014.8 -- 59
2020-09-12 16:00:00 28.3 5 Este 18 Este 0 1015.1 -- 59
2020-09-12 15:00:00 27.8 9 Nordeste 14 Nordeste 0 1015.3 -- 60
2020-09-12 14:00:00 27.6 5 Este 11 Este 0 1015.7 -- 61
2020-09-12 13:00:00 26.9 6 Sudeste 9 Sudeste 0 1016 -- 65
2020-09-12 12:00:00 26.3 6 Sudeste 19 Este 0 1016 -- 66
2020-09-12 11:00:00 25.7 9 Este 14 Este 0 1015 -- 65
2020-09-12 10:00:00 24.3 0 Calma 7 Noroeste 0 1014.5 -- 65
2020-09-12 09:00:00 23.5 5 Noroeste 15 Noroeste 0 1013.9 -- 60
2020-09-12 08:00:00 22.7 6 Noroeste 9 Noroeste 0 1013.3 -- 63
2020-09-12 07:00:00 22 4 Noroeste 10 Noroeste 0 1013 -- 63
2020-09-12 06:00:00 22 8 Noroeste 11 Noroeste 0 1013.1 -- 64
2020-09-12 05:00:00 21.8 5 Noroeste 9 Noroeste 0 1013 -- 65
2020-09-12 04:00:00 21.6 4 Noroeste 10 Noroeste 0 1013 -- 67
2020-09-12 03:00:00 21.8 4 Noroeste 10 Noroeste 0 1013.4 -- 68
2020-09-12 02:00:00 22 4 Noroeste 7 Noroeste 0 1013.4 -- 69
2020-09-12 01:00:00 22.3 3 Noroeste 7 Oeste 0 1013.5 -- 71
2020-09-12 00:00:00 22.8 5 Noroeste 10 Noroeste 0 1013.4 -- 71
2020-09-11 23:00:00 22.9 3 Noroeste 6 Noroeste 0 1013 -- 72
2020-09-11 22:00:00 23.6 0 Calma 3 Sudeste 0 1012.7 -- 79
2020-09-11 21:00:00 23.6 0 Calma 5 Nordeste 0 1012.2 -- 75
2020-09-11 20:00:00 24.5 3 Nordeste 5 Nordeste 0 1012 -- 74
2020-09-11 19:00:00 25 0 Calma 6 Este 0 1012.3 -- 74
2020-09-11 18:00:00 25.5 3 Este 13 Sudeste 0 1012.5 -- 81
2020-09-11 17:00:00 25.3 10 Sudeste 15 Sudeste 0 1012.8 -- 81
2020-09-11 16:00:00 25.2 11 Sudeste 15 Sudeste 0 1013.2 -- 84
2020-09-11 15:00:00 -- 12 Sudeste 17 Sudeste 0 1014 -- --
2020-09-11 14:00:00 -- 13 Sudeste 19 Sudeste 0 1014.4 -- --
2020-09-11 13:00:00 -- 15 Sudeste 21 Sudeste 0 1014.7 -- --
2020-09-11 12:00:00 -- 10 Este 17 Sudeste 0 1014.6 -- --
2020-09-11 11:00:00 -- 9 Este 15 Este 0 1014.6 -- --
2020-09-11 10:00:00 -- 9 Este 13 Este 0 1014.2 -- --
2020-09-11 09:00:00 -- 0 Calma -- -- -- 1014.3 -- --
2020-09-11 08:00:00 -- 5 Norte 8 Norte 0 -- -- --
2020-09-11 07:00:00 -- 2 Noroeste 8 Noroeste 0 -- -- --
2020-09-11 06:00:00 -- 4 Noroeste 6 Noroeste 0 -- -- --
2020-09-11 05:00:00 -- 2 Noroeste 6 Noroeste 0 -- -- --
2020-09-11 04:00:00 -- 3 Noroeste 6 Oeste 0 -- -- --
2020-09-11 03:00:00 -- 0 Calma 10 Oeste 0 -- -- --
2020-09-11 02:00:00 -- 3 Oeste 11 Este 0 -- -- --
2020-09-11 01:00:00 -- 7 Este 11 Este 0 -- -- --
2020-09-11 00:00:00 -- 4 Nordeste 7 Nordeste 0 -- -- --
2020-09-10 23:00:00 -- 2 Este 4 Este 0 -- -- --
2020-09-10 22:00:00 -- 0 Calma 6 Sudeste 0 -- -- --
2020-09-10 21:00:00 -- 5 Sudeste 8 Sudeste 0 -- -- --
2020-09-10 20:00:00 -- 6 Sur 12 Sur 0 -- -- --
2020-09-10 19:00:00 -- 7 Sur 13 Sur 0 -- -- --
2020-09-10 18:00:00 -- 10 Sur 15 Sur 0 -- -- --
2020-09-10 17:00:00 -- 10 Sudoeste 20 Sudoeste 0 -- -- --
2020-09-10 16:00:00 -- 13 Sudoeste 20 Sur 0 -- -- --
2020-09-10 15:00:00 -- 12 Sudoeste 18 Sudoeste 0 -- -- --
2020-09-10 14:00:00 -- 10 Sudoeste 21 Sudoeste 0 -- -- --
2020-09-10 13:00:00 -- 13 Sudoeste 20 Sur 0 -- -- --
2020-09-10 12:00:00 -- 8 Sudoeste 13 Sudoeste 0 -- -- --
2020-09-10 11:00:00 -- 5 Sudoeste 11 Sudoeste 0 -- -- --
2020-09-10 10:00:00 -- 4 Oeste 13 Oeste 0 -- -- --
2020-09-10 09:00:00 -- 6 Noroeste 14 Oeste 0 -- -- --
2020-09-10 08:00:00 -- 8 Oeste 16 Oeste 0 -- -- --
2020-09-10 07:00:00 -- 10 Oeste 14 Noroeste 0 -- -- --
2020-09-10 06:00:00 -- 4 Noroeste 10 Oeste 0 -- -- --
2020-09-10 05:00:00 -- 6 Noroeste 11 Oeste 0 -- -- --
2020-09-10 04:00:00 -- 6 Noroeste 13 Oeste 0 -- -- --
2020-09-10 03:00:00 -- 3 Noroeste 7 Noroeste 0 -- -- --
2020-09-10 02:00:00 -- 3 Noroeste 6 Noroeste 0 -- -- --
2020-09-10 01:00:00 -- 0 Calma 6 Noroeste 0 -- -- --
2020-09-10 00:00:00 -- 0 Calma 7 Este 0 -- -- --
2020-09-09 23:00:00 -- 3 Este 6 Sudeste 0 -- -- --
2020-09-09 22:00:00 -- 3 Sudeste 6 Sudeste 0 -- -- --
2020-09-09 21:00:00 -- 2 Sudeste 8 Sudeste 0 -- -- --
2020-09-09 20:00:00 -- 6 Sudeste 12 Sudeste 0 -- -- --
2020-09-09 19:00:00 -- 7 Sudeste 11 Sudeste 0 -- -- --
2020-09-09 18:00:00 -- 7 Sudeste 10 Sudeste 0 -- -- --
2020-09-09 17:00:00 -- 8 Sudeste 13 Sudeste 0 -- -- --
2020-09-09 16:00:00 -- 6 Sudeste 12 Sudeste 0 -- -- --
2020-09-09 15:00:00 -- 8 Sudeste 11 Sudeste 0 -- -- --
2020-09-09 14:00:00 -- 9 Sudeste 15 Sudeste 0 -- -- --
2020-09-09 13:00:00 -- 10 Sudeste 16 Este 0 -- -- --
2020-09-09 12:00:00 -- 13 Este 21 Sudeste 0 -- -- --
2020-09-09 11:00:00 -- 9 Este 15 Este 0 -- -- --
2020-09-09 10:00:00 -- 10 Este 16 Este 0 -- -- --
2020-09-09 09:00:00 -- 9 Nordeste 15 Nordeste 0 -- -- --
2020-09-09 08:00:00 -- 9 Nordeste 15 Nordeste 0 -- -- --
2020-09-09 07:00:00 -- 10 Nordeste 16 Este 0 -- -- --
2020-09-09 06:00:00 -- 10 Nordeste 18 Nordeste 0 -- -- --
2020-09-09 05:00:00 -- 10 Nordeste 18 Nordeste 0 -- -- --
2020-09-09 04:00:00 -- 9 Nordeste 16 Este 0 -- -- --
2020-09-09 03:00:00 -- 11 Este 17 Nordeste 0 -- -- --
2020-09-09 02:00:00 -- 12 Este 19 Este 0 -- -- --
2020-09-09 01:00:00 -- 11 Este 21 Este 0 -- -- --
2020-09-09 00:00:00 -- 12 Este 21 Este 0 -- -- --
2020-09-08 23:00:00 22.7 12 Este 21 Este 0 1020.2 -- 88
2020-09-08 22:00:00 22.6 11 Nordeste 21 Este 0 1019.8 -- 88
2020-09-08 21:00:00 23 14 Este 22 Este 0 1019.2 -- 87
2020-09-08 20:00:00 24.2 15 Este 22 Este 0 1018.8 -- 84
2020-09-08 19:00:00 25 13 Este 20 Este 0 1018.7 -- 82
2020-09-08 18:00:00 24.7 10 Este 15 Este 0 1018.6 -- 81
2020-09-08 17:00:00 24.9 9 Este 19 Este 0 1018.8 -- 81
2020-09-08 16:00:00 24.4 10 Nordeste 20 Nordeste 0 1018.9 -- 83
2020-09-08 15:00:00 24.3 9 Este 17 Nordeste 0 1019.2 -- 85
2020-09-08 14:00:00 24.4 8 Nordeste 21 Este 0 1019.4 -- 86
2020-09-08 13:00:00 24.1 11 Este 18 Este 0 1019.5 -- 89
2020-09-08 12:00:00 24 13 Este 20 Este 0 1019.6 -- 89
2020-09-08 11:00:00 24.2 10 Este 17 Este 0 1019.5 -- 90
2020-09-08 10:00:00 23.9 8 Este 18 Este 0 1018.9 -- 90
2020-09-08 09:00:00 23.5 8 Nordeste 13 Nordeste 0 1018.7 -- 93
2020-09-08 08:00:00 23.3 8 Este 15 Este 0 1018.4 -- 94
2020-09-08 07:00:00 23 10 Este 18 Este 0 1017.8 -- 94
2020-09-08 06:00:00 22.9 10 Este 16 Este 0 1017.9 -- 94
2020-09-08 05:00:00 23.2 9 Este 18 Este 0 1017.8 -- 94
2020-09-08 04:00:00 23 4 Nordeste 15 Oeste 0 1018 -- 94
2020-09-08 03:00:00 23.2 9 Este 14 Este 0 1018.3 -- 94
2020-09-08 02:00:00 23 9 Este 15 Nordeste 0 1018.2 -- 94
2020-09-08 01:00:00 22.4 9 Nordeste 21 Este 0 1018 -- 99
2020-09-08 00:00:00 22.9 15 Este 23 Este 0 1017.3 -- 99
2020-09-07 23:00:00 23.1 14 Este 22 Este 0 1016.3 -- 98
2020-09-07 22:00:00 23.2 13 Este 18 Este 0 1015.2 -- 98
2020-09-07 21:00:00 23.3 6 Este 8 Este 0 1014 -- 94
2020-09-07 20:00:00 24.4 4 Sudeste 7 Sudeste 0 1013.4 -- 93
2020-09-07 19:00:00 24.2 6 Sur 17 Sudoeste 0 1013.1 -- 93
2020-09-07 18:00:00 24.2 15 Sudoeste 23 Sudoeste 0 1013 -- 93
2020-09-07 17:00:00 24 10 Sudoeste 26 Sur 0 1013 -- 91
2020-09-07 16:00:00 24.2 14 Sudoeste 26 Sudoeste 0 1013.3 -- 90
2020-09-07 15:00:00 24.5 12 Sudoeste 25 Sudoeste 0 1014 -- 85
2020-09-07 14:00:00 24.5 16 Sudoeste 24 Sur 0 1014.4 -- 85
2020-09-07 13:00:00 24.1 9 Sudoeste 23 Sudoeste 0 1014.7 -- 82
2020-09-07 12:00:00 23.9 14 Sudoeste 20 Sur 0 1014.8 -- 86
2020-09-07 11:00:00 23.7 13 Sudoeste 18 Sur 0 1014.8 -- 87
2020-09-07 10:00:00 23.2 4 Sudoeste 9 Oeste 0 1014.6 -- 86
2020-09-07 09:00:00 22.1 4 Oeste 9 Oeste 0 1014.6 -- 85
2020-09-07 08:00:00 21.9 4 Noroeste 9 Oeste 0 1014.5 -- 85
2020-09-07 07:00:00 21.7 4 Noroeste 9 Oeste 0 1014.2 -- 85
2020-09-07 06:00:00 21.8 4 Oeste 10 Noroeste 0 1014.1 -- 85
2020-09-07 05:00:00 21.7 5 Noroeste 10 Oeste 0 1014.4 -- 85
2020-09-07 04:00:00 21.8 5 Noroeste 12 Oeste 0 1014.8 -- 85
2020-09-07 03:00:00 22.2 2 Oeste 6 Oeste 0 1015.4 -- 86
2020-09-07 02:00:00 22.4 2 Oeste 7 Oeste 0 1015.7 -- 88
2020-09-07 01:00:00 22.8 4 Nordeste 8 Este 0 1015.8 -- 94
2020-09-07 00:00:00 23.2 4 Este 13 Sudeste 0 1015.6 -- 92
2020-09-06 23:00:00 23.3 10 Este 16 Sudeste 0 1015.5 -- 90
2020-09-06 22:00:00 23.7 5 Este 9 Este 0 1015.2 -- 88
2020-09-06 21:00:00 24 5 Este 7 Este 0 1014.5 -- 85
2020-09-06 20:00:00 25.4 4 Este 8 Este 0 1014.3 -- 82
2020-09-06 19:00:00 25.9 3 Este 19 Este 0 1014.3 -- 82
2020-09-06 18:00:00 26.5 5 Sudeste 8 Sudeste 0 1014.5 -- 81
2020-09-06 17:00:00 26.3 6 Sudeste 11 Sudeste 0 1015 -- 81
2020-09-06 16:00:00 26.2 6 Este 14 Nordeste 0 1015.4 -- 82
2020-09-06 15:00:00 25.8 7 Nordeste 13 Este 0 1015.9 -- 82
2020-09-06 14:00:00 25.8 8 Este 13 Este 0 1016.4 -- 83
2020-09-06 13:00:00 25.5 8 Este 13 Nordeste 0 1016.7 -- 84
2020-09-06 12:00:00 24.6 8 Este 14 Este 0 1016.5 -- 87
2020-09-06 11:00:00 24 8 Este 13 Este 0 1016.2 -- 90
2020-09-06 10:00:00 23.4 6 Este 10 Este 0 1015.9 -- 93
2020-09-06 09:00:00 23.1 8 Este 14 Este 0 1015.6 -- 92
2020-09-06 08:00:00 23 9 Este 14 Este 0 1015.2 -- 90
2020-09-06 07:00:00 22.5 5 Este 18 Este 0 1014.9 -- 89
2020-09-06 06:00:00 22.7 9 Este 17 Este 0 1015 -- 87
2020-09-06 05:00:00 22.9 13 Nordeste 19 Este 0 1015.1 -- 85
2020-09-06 04:00:00 22.7 10 Nordeste 18 Nordeste 0 1015.5 -- 87
2020-09-06 03:00:00 22.8 9 Este 16 Este 0 1016.3 -- 86
2020-09-06 02:00:00 22.9 9 Este 14 Nordeste 0 1016.8 -- 86
2020-09-06 01:00:00 22.9 7 Este 14 Nordeste 0 1017.2 -- 87
2020-09-06 00:00:00 23 7 Este 13 Este 0 1017.4 -- 85
2020-09-05 23:00:00 23.1 6 Este 11 Nordeste 0 1017.1 -- 88
2020-09-05 22:00:00 23.2 8 Este 12 Este 0 1016.7 -- 86
2020-09-05 21:00:00 23.4 6 Nordeste 10 Nordeste 0 1016.2 -- 86
2020-09-05 20:00:00 25.2 5 Este 11 Este 0 1015.7 -- 82
2020-09-05 19:00:00 25.6 7 Este 14 Este 0 1015.8 -- 81
2020-09-05 18:00:00 26 11 Sudeste 14 Este 0 1016 -- 80
2020-09-05 17:00:00 26 8 Este 13 Sudeste 0 1016.6 -- 79
2020-09-05 16:00:00 25.9 7 Este 12 Nordeste 0 1017.6 -- 79
2020-09-05 15:00:00 25.9 8 Este 13 Este 0 1018.2 -- 79
2020-09-05 14:00:00 25.5 9 Este 15 Este 0 1018.6 -- 82
2020-09-05 13:00:00 25.2 9 Este 29 Este 0 1019.2 -- 84
2020-09-05 12:00:00 24.6 8 Este 16 Este 0 1019.4 -- 84
2020-09-05 11:00:00 24.1 7 Este 12 Este 0 1019.4 -- 89
2020-09-05 10:00:00 23.5 3 Nordeste 6 Nordeste 0 1019.3 -- 90
2020-09-05 09:00:00 23.2 4 Este 8 Sudeste 0 1019.1 -- 90
2020-09-05 08:00:00 23.2 2 Este 9 Sudeste 0 1018.8 -- 90
2020-09-05 07:00:00 22.7 6 Este 13 Nordeste 0 1018.7 -- 90
2020-09-05 06:00:00 22.6 6 Nordeste 14 Este 0 1018.7 -- 90
2020-09-05 05:00:00 22.5 8 Este 14 Este 0 1019.1 -- 90
2020-09-05 04:00:00 22.6 9 Nordeste 15 Nordeste 0 1019.5 -- 90
2020-09-05 03:00:00 22.8 9 Nordeste 16 Nordeste 0 1019.9 -- 90
2020-09-05 02:00:00 23 9 Nordeste 18 Nordeste 0 1020.4 -- 87
2020-09-05 01:00:00 23 9 Nordeste 15 Este 0 1020.9 -- 86
2020-09-05 00:00:00 23.1 9 Este 16 Este 0 1021 -- 85
2020-09-04 23:00:00 23.1 9 Este 13 Este 0 1020.8 -- 83
2020-09-04 22:00:00 23.3 9 Este 14 Este 0 1020.2 -- 82
2020-09-04 21:00:00 24.1 7 Nordeste 13 Nordeste 0 1019.8 -- 80
2020-09-04 20:00:00 25.7 5 Nordeste 10 Nordeste 0 1019.7 -- 77
2020-09-04 19:00:00 26.2 3 Nordeste 10 Nordeste 0 1019.8 -- 76
2020-09-04 18:00:00 26.5 3 Sudeste 9 Sudeste 0 1020.1 -- 74
2020-09-04 17:00:00 26.3 3 Este 9 Este 0 1020.2 -- 74
2020-09-04 16:00:00 26.2 3 Este 8 Este 0 1020.6 -- 72
2020-09-04 15:00:00 26.1 3 Este 10 Norte 0 1021.3 -- 71
2020-09-04 14:00:00 25.4 4 Este 8 Este 0 1021.4 -- 74
2020-09-04 13:00:00 24.4 0 Calma 5 Este 0 1022 -- 74
2020-09-04 12:00:00 24.6 0 Calma 7 Nordeste 0 1021.8 -- 73
2020-09-04 11:00:00 24.3 4 Nordeste 9 Nordeste 0 1021.4 -- 75
2020-09-04 10:00:00 23.3 3 Nordeste 5 Nordeste 0 1021.1 -- 82
2020-09-04 09:00:00 22.4 2 Nordeste 9 Nordeste 0 1020.7 -- 89
2020-09-04 08:00:00 22.2 6 Nordeste 11 Nordeste 0 1020.2 -- 91
2020-09-04 07:00:00 21.8 6 Nordeste 13 Nordeste 0 1019.8 -- 92
2020-09-04 06:00:00 22 8 Nordeste 14 Este 0 1019.6 -- 92
2020-09-04 05:00:00 22.2 9 Nordeste 15 Nordeste 0 1019.6 -- 93
2020-09-04 04:00:00 22.2 7 Este 16 Sudeste 0 1020.1 -- 93
2020-09-04 03:00:00 22.4 8 Nordeste 12 Nordeste 0 1020.7 -- 93
2020-09-04 02:00:00 22.5 6 Nordeste 16 Nordeste 0 1021.1 -- 92
2020-09-04 01:00:00 22.4 8 Nordeste 19 Este 0 1021.2 -- 90
2020-09-04 00:00:00 22.9 12 Este 24 Nordeste 0 1020.9 -- 84
2020-09-03 23:00:00 23.1 15 Este 27 Este 0 1020.4 -- 79
2020-09-03 22:00:00 23.2 16 Este 31 Este 0 1019.8 -- 80
2020-09-03 21:00:00 23 15 Nordeste 24 Este 0 1019.2 -- 86
2020-09-03 20:00:00 24.2 17 Este 28 Nordeste 0 1018.7 -- 85
2020-09-03 19:00:00 24.8 14 Este 21 Este 0 1018.7 -- 85
2020-09-03 18:00:00 25.2 13 Nordeste 23 Este 0 1018.8 -- 83
2020-09-03 17:00:00 25.2 14 Este 24 Este 0 1019 -- 82
2020-09-03 16:00:00 25.1 15 Este 23 Este 0 1019.4 -- 82
2020-09-03 15:00:00 24.8 13 Nordeste 21 Este 0 1019.8 -- 82
2020-09-03 14:00:00 24.7 15 Este 23 Este 0 1020 -- 80
2020-09-03 13:00:00 24.4 15 Este 22 Este 0 1020 -- 82
2020-09-03 12:00:00 24.1 15 Este 24 Este 0 1020.1 -- 84
2020-09-03 11:00:00 23.6 14 Este 24 Este 0 1019.5 -- 87
2020-09-03 10:00:00 23.3 15 Este 22 Este 0 1018.9 -- 88
2020-09-03 09:00:00 23.1 12 Nordeste 19 Nordeste 0 1018.4 -- 89
2020-09-03 08:00:00 22.6 10 Este 17 Nordeste 0 1018 -- 89
2020-09-03 07:00:00 22.1 9 Este 17 Nordeste 0 1017.5 -- 89
2020-09-03 06:00:00 22.2 11 Nordeste 19 Este 0 1017.2 -- 87
2020-09-03 05:00:00 22.1 11 Este 18 Este 0 1017.2 -- 87
2020-09-03 04:00:00 22 10 Este 21 Nordeste 0 1017.3 -- 86
2020-09-03 03:00:00 22.1 6 Este 12 Este 0 1017.4 -- 83
2020-09-03 02:00:00 21.6 0 Calma 4 Nordeste 0 1017.3 -- 80
2020-09-03 01:00:00 21.5 0 Calma 6 Nordeste 0 1017.2 -- 82
2020-09-03 00:00:00 21.7 4 Nordeste 8 Este 0 1017 -- 87
2020-09-02 23:00:00 21.7 2 Nordeste 13 Este 0 1016.9 -- 87
2020-09-02 22:00:00 21.6 8 Este 13 Este 0 1016.2 -- 88
2020-09-02 21:00:00 22.2 3 Este 16 Sudeste 0 1015.5 -- 85
2020-09-02 20:00:00 24 11 Este 17 Sudeste 0 1015.2 -- 81
2020-09-02 19:00:00 24.7 7 Este 11 Nordeste 0 1014.9 -- 78
2020-09-02 18:00:00 24.6 9 Nordeste 12 Este 0 1014.9 -- 79
2020-09-02 17:00:00 24.7 6 Nordeste 13 Nordeste 0 1014.8 -- 80
2020-09-02 16:00:00 24 8 Nordeste 10 Nordeste 0 1014.6 -- 81
2020-09-02 15:00:00 23.6 7 Este 12 Sudeste 0 1014.9 -- 82
2020-09-02 14:00:00 23.4 5 Este 12 Este 0 1014.8 -- 89
2020-09-02 13:00:00 22.7 5 Este 9 Sudeste 0 1014.8 -- 91
2020-09-02 12:00:00 22.2 4 Sudeste 9 Sudeste 0 1014.8 -- 91
2020-09-02 11:00:00 21.6 5 Este 9 Este 0 1014.2 -- 91
2020-09-02 10:00:00 21.1 0 Calma 9 Noroeste 0 1013.7 -- 89
2020-09-02 09:00:00 20 5 Noroeste 12 Oeste 0 1013 -- 89
2020-09-02 08:00:00 19.6 6 Oeste 15 Oeste 0 1012.6 -- 89
2020-09-02 07:00:00 19.4 8 Oeste 13 Oeste 0 1012 -- 87
2020-09-02 06:00:00 19.6 2 Oeste 7 Oeste 0 1011.8 -- 87
2020-09-02 05:00:00 20 0 Calma 7 Oeste 0 1011.9 -- 90
2020-09-02 04:00:00 20.1 0 Calma 8 Nordeste 0 1012.1 -- 97
2020-09-02 03:00:00 20.3 4 Norte 11 Este 0 1012.3 -- 97
2020-09-02 02:00:00 20.5 4 Nordeste 9 Nordeste 0 1012.3 -- 94
2020-09-02 01:00:00 21.4 2 Sudeste 5 Sudoeste 0 1012.2 -- 89
2020-09-02 00:00:00 22 2 Oeste 12 Sudoeste 0 1011.9 -- 89
2020-09-01 23:00:00 22.4 3 Sudoeste 17 Oeste 0 1011.7 -- 86
2020-09-01 22:00:00 22.6 6 Oeste 14 Oeste 0 1011.3 -- 85
2020-09-01 21:00:00 22.7 5 Oeste 13 Oeste 0 1010.8 -- 85
2020-09-01 20:00:00 22.7 9 Sudoeste 14 Sudoeste 0 1010.6 -- 88
2020-09-01 19:00:00 23.5 8 Sudoeste 12 Sudoeste 0 1010.9 -- 85
2020-09-01 18:00:00 23.2 0 Calma 6 Sur 0 1011.2 -- 81
2020-09-01 17:00:00 23.7 2 Sur 8 Sur 0 1011.7 -- 79
2020-09-01 16:00:00 24.3 0 Calma 6 Nordeste 0 1012.1 -- 75
2020-09-01 15:00:00 24.3 4 Nordeste 7 Sudeste 0 1012.6 -- 75
2020-09-01 14:00:00 24.1 3 Nordeste 8 Este 0 1013.3 -- 76
2020-09-01 13:00:00 23.4 5 Este 12 Sudeste 0 1013 -- 79
2020-09-01 12:00:00 23.7 8 Este 26 Este 0 1013.5 -- 79
2020-09-01 11:00:00 23.4 5 Este 12 Nordeste 0 1013.7 -- 83
2020-09-01 10:00:00 23 8 Este 12 Nordeste 0 1013.4 -- 86
2020-09-01 09:00:00 22.2 4 Nordeste 11 Nordeste 0 1013.2 -- 87
2020-09-01 08:00:00 21.7 2 Nordeste 7 Nordeste 0 1013.1 -- 83
2020-09-01 07:00:00 21.3 0 Calma 6 Norte 0 1013.1 -- 82
2020-09-01 06:00:00 21.4 2 Norte 7 Noroeste 0 1013 -- 79
2020-09-01 05:00:00 21.4 0 Calma 6 Este 0 1013.3 -- 80
2020-09-01 04:00:00 21.8 0 Calma 11 Este 0 1013.8 -- 81
2020-09-01 03:00:00 21.9 2 Norte 13 Nordeste 0 1014.4 -- 84
2020-09-01 02:00:00 22 9 Nordeste 18 Nordeste 0 1015 -- 84
2020-09-01 01:00:00 22.1 12 Nordeste 20 Este 0 1015.5 -- 83
2020-09-01 00:00:00 22.2 12 Este 17 Este 0 1015.6 -- 82
2020-08-31 23:00:00 22.5 10 Nordeste 16 Nordeste 0 1015.4 -- 79
2020-08-31 22:00:00 22.7 10 Este 19 Este 0 1015.1 -- 79
2020-08-31 21:00:00 22.8 13 Nordeste 18 Nordeste 0 1014.3 -- 79
2020-08-31 20:00:00 23.9 13 Este 22 Este 0 1014 -- 80
2020-08-31 19:00:00 24.2 9 Nordeste 15 Nordeste 0 1014.7 -- 82
2020-08-31 18:00:00 24.6 11 Nordeste 15 Este 0 1015 -- 79
2020-08-31 17:00:00 25.1 10 Este 16 Este 0 1015.4 -- 77
2020-08-31 16:00:00 25.1 13 Este 21 Este 0 1015.9 -- 77
2020-08-31 15:00:00 24.8 11 Este 18 Este 0 1016.5 -- 77
2020-08-31 14:00:00 24.3 11 Este 23 Este 0 1017 -- 77
2020-08-31 13:00:00 24.1 13 Este 21 Este 0 1017.3 -- 77
2020-08-31 12:00:00 23.9 13 Este 19 Este 0 1017 -- 78
2020-08-31 11:00:00 23.5 13 Este 19 Este 0 1016.9 -- 81
2020-08-31 10:00:00 22.9 13 Este 18 Este 0 1016.4 -- 84
2020-08-31 09:00:00 22.4 10 Nordeste 17 Este 0 1016 -- 89
2020-08-31 08:00:00 22 11 Este 18 Este 0 1015.7 -- 91
2020-08-31 07:00:00 21.5 12 Este 19 Este 0 1015.1 -- 91
2020-08-31 06:00:00 21.5 10 Este 16 Este 0 1014.9 -- 92
2020-08-31 05:00:00 21.6 11 Este 17 Este 0 1014.8 -- 92
2020-08-31 04:00:00 21.7 12 Este 18 Este 0 1014.9 -- 92
2020-08-31 03:00:00 22 13 Nordeste 18 Nordeste 0 1014.5 -- 90
2020-08-31 02:00:00 22.2 10 Este 18 Nordeste 0 1014.9 -- 90
2020-08-31 01:00:00 22.3 11 Este 18 Este 0 1014.8 -- 89
2020-08-31 00:00:00 22.4 9 Este 15 Este 0 1014.5 -- 87
2020-08-30 23:00:00 22.8 9 Este 14 Este 0 1013.8 -- 82
2020-08-30 22:00:00 23.2 5 Nordeste 10 Este 0 1013 -- 79
2020-08-30 21:00:00 23.7 5 Nordeste 22 Nordeste 0 1011.8 -- 77
2020-08-30 20:00:00 25.6 5 Este 9 Nordeste 0 1011.2 -- 72
2020-08-30 19:00:00 26.1 5 Este 9 Este 0 1010.8 -- 69
2020-08-30 18:00:00 26.5 5 Este 11 Sudeste 0 1010.6 -- 70
2020-08-30 17:00:00 25.8 7 Este 12 Sudeste 0 1010.7 -- 72
2020-08-30 16:00:00 25.3 6 Nordeste 10 Este 0 1010.8 -- 79
2020-08-30 15:00:00 24.9 6 Este 15 Este 0 1010.8 -- 82
2020-08-30 14:00:00 24.2 10 Este 21 Este 0 1011.1 -- 84
2020-08-30 13:00:00 23.6 17 Este 24 Este 0 1010.9 -- 85
2020-08-30 12:00:00 23.7 16 Este 28 Este 0 1010.7 -- 81
2020-08-30 11:00:00 23.9 19 Este 32 Este 0 1010.2 -- 79
2020-08-30 10:00:00 23.7 21 Este 39 Este 0 1009.7 -- 76
2020-08-30 09:00:00 23.8 24 Este 40 Este 0 1009 -- 72
2020-08-30 08:00:00 24 26 Este 41 Este 0 1008.3 -- 67
2020-08-30 07:00:00 23.7 20 Nordeste 29 Nordeste 0 1007.8 -- 60
2020-08-30 06:00:00 23.6 7 Nordeste 17 Este 0 1007.8 -- 52
2020-08-30 05:00:00 25 9 Este 18 Nordeste 0 1007.2 -- 51
2020-08-30 04:00:00 26.5 13 Norte 31 Norte 0 1007.1 -- 36
2020-08-30 03:00:00 25.6 6 Noroeste 24 Noroeste 0 1007 -- 37
2020-08-30 02:00:00 27 11 Norte 30 Noroeste 0 1007.2 -- 35
2020-08-30 01:00:00 27.1 9 Norte 28 Norte 0 1006.9 -- 36
2020-08-30 00:00:00 28.2 13 Norte 32 Noroeste 0 1006.9 -- 35
2020-08-29 23:00:00 25.1 6 Oeste 21 Norte 0 1006.4 -- 49
2020-08-29 22:00:00 25.2 3 Oeste 24 Norte 0 1005.5 -- 48
2020-08-29 21:00:00 29.1 10 Noroeste 33 Norte 0 1004.5 -- 32
2020-08-29 20:00:00 30.1 13 Norte 31 Norte 0 1004.3 -- 31
2020-08-29 19:00:00 30.3 9 Norte 34 Norte 0 1004 -- 32
2020-08-29 18:00:00 29.2 8 Norte 25 Noroeste 0 1003.9 -- 39
2020-08-29 17:00:00 27.2 9 Sudeste 31 Este 0 1004 -- 48
2020-08-29 16:00:00 26.1 5 Sudoeste 28 Oeste 0 1004.3 -- 49
2020-08-29 15:00:00 25.3 7 Sudoeste 28 Sudoeste 0 1004.4 -- 54
2020-08-29 14:00:00 25.8 5 Oeste 28 Oeste 0 1004.5 -- 52
2020-08-29 13:00:00 26.2 7 Oeste 23 Sur 0 1004.9 -- 50
2020-08-29 12:00:00 22.6 7 Sudoeste 23 Sudoeste 0 1005.2 -- 68
2020-08-29 11:00:00 21.1 10 Sudoeste 26 Sur 0 1005.1 -- 74
2020-08-29 10:00:00 21.7 6 Sudoeste 14 Sudoeste 0 1004.9 -- 71
2020-08-29 09:00:00 22.2 0 Calma 12 Sudoeste 0 1004.6 -- 61
2020-08-29 08:00:00 22.1 3 Sudeste 9 Sudeste 0 1004.3 -- 76
2020-08-29 07:00:00 22.2 3 Noroeste 12 Oeste 0 1004 -- 61
2020-08-29 06:00:00 22.1 3 Sudoeste 14 Oeste 0 1003.5 -- 71
2020-08-29 05:00:00 22.6 2 Oeste 12 Sudoeste 0 1003.7 -- 70
2020-08-29 04:00:00 24.1 3 Oeste 13 Oeste 0 1003.8 -- 64
2020-08-29 03:00:00 25 4 Oeste 15 Oeste 0 1004 -- 65
2020-08-29 02:00:00 24.9 5 Oeste 17 Oeste 0 1004.4 -- 69
2020-08-29 01:00:00 25 4 Oeste 19 Oeste 0 1004.8 -- 69
2020-08-29 00:00:00 26.6 7 Oeste 17 Oeste 0 1005.2 -- 63
2020-08-28 23:00:00 28.5 3 Oeste 14 Oeste 0 1005.4 -- 57
2020-08-28 22:00:00 29.8 8 Oeste 20 Oeste 0 1004.8 -- 52
2020-08-28 21:00:00 32.9 4 Noroeste 25 Noroeste 0 1004.1 -- 43
2020-08-28 20:00:00 33.6 5 Noroeste 21 Oeste 0 1003.8 -- 45
2020-08-28 19:00:00 32.4 4 Sudoeste 18 Sudoeste 0 1003.9 -- 49
2020-08-28 18:00:00 31.4 5 Sudoeste 25 Sudoeste 0 1004.2 -- 53
2020-08-28 17:00:00 30.8 7 Sudoeste 25 Sur 0 1004.8 -- 56
2020-08-28 16:00:00 27.6 11 Sudoeste 31 Sur 0 1005.5 -- 65
2020-08-28 15:00:00 30.2 6 Oeste 24 Oeste 0 1006.1 -- 56
2020-08-28 14:00:00 28.9 7 Oeste 26 Oeste 0 1006.9 -- 59
2020-08-28 13:00:00 28.2 6 Oeste 38 Oeste 0 1007.7 -- 60
2020-08-28 12:00:00 27.3 9 Oeste 30 Oeste 0 1008.1 -- 66
2020-08-28 11:00:00 25.1 0 Calma 14 Sudoeste 0 1008.3 -- 80
2020-08-28 10:00:00 23.2 6 Sur 11 Sur 0 1008.5 -- 88
2020-08-28 09:00:00 22 0 Calma 6 Sudoeste 0 1008.7 -- 80
2020-08-28 08:00:00 21.7 2 Oeste 7 Nordeste 0 1008.5 -- 82
2020-08-28 07:00:00 21.7 0 Calma 6 Oeste 0 1008.6 -- 82
2020-08-28 06:00:00 22.1 0 Calma 5 Sudoeste 0 1008.8 -- 83
2020-08-28 05:00:00 22.1 0 Calma 8 Oeste 0 1009.2 -- 84
2020-08-28 04:00:00 22.4 3 Oeste 7 Oeste 0 1009.6 -- 87
2020-08-28 03:00:00 22.6 2 Oeste 6 Oeste 0 1010.4 -- 90
2020-08-28 02:00:00 22.9 3 Oeste 9 Oeste 0 1011.3 -- 94
2020-08-28 01:00:00 23.5 0 Calma 11 Nordeste 0 1011.8 -- 99
2020-08-28 00:00:00 23.8 5 Nordeste 13 Nordeste 0 1012 -- 98
2020-08-27 23:00:00 24.1 7 Nordeste 12 Nordeste 0 1012.5 -- 97
2020-08-27 22:00:00 24.6 4 Sudoeste 12 Sudoeste 0 1012.4 -- 94
2020-08-27 21:00:00 24.5 6 Sudoeste 17 Sudoeste 0 1012.3 -- 95
2020-08-27 20:00:00 25.1 10 Sudoeste 19 Sur 0 1012.3 -- 95
2020-08-27 19:00:00 24.7 14 Sudoeste 20 Sur 0 1012.7 -- 96
2020-08-27 18:00:00 24.9 13 Sudoeste 19 Sur 0 1013.1 -- 93
2020-08-27 17:00:00 25.6 11 Sudoeste 18 Sudoeste 0 1013.8 -- 89
2020-08-27 16:00:00 25.2 12 Sudoeste 37 Sur 0 1014.7 -- 93
2020-08-27 15:00:00 25.1 10 Sudoeste 15 Sur 0 1015.4 -- 93
2020-08-27 14:00:00 24.4 7 Sudoeste 13 Sudoeste 0 1015.9 -- 97
2020-08-27 13:00:00 23.6 9 Sudoeste 15 Sur 0 1016.5 -- 99
2020-08-27 12:00:00 23.1 6 Sur 12 Sur 0 1016.7 -- 99
2020-08-27 11:00:00 22.7 5 Sur 16 Sur 0 1016.7 -- 99
2020-08-27 10:00:00 22.3 8 Sudoeste 14 Sudoeste 0 1016.6 -- 99
2020-08-27 09:00:00 22.6 3 Sudoeste 8 Sudoeste 0 1016.3 -- 90
2020-08-27 08:00:00 22.2 2 Oeste 5 Sudoeste 0 1016.1 -- 92
2020-08-27 07:00:00 22.6 0 Calma 5 Oeste 0 1016.1 -- 90
2020-08-27 06:00:00 22.8 0 Calma 7 Oeste 0 1015.9 -- 90
2020-08-27 05:00:00 22.9 0 Calma 4 Nordeste 0 1016.3 -- 92
2020-08-27 04:00:00 23.2 0 Calma 5 Oeste 0 1016.8 -- 92
2020-08-27 03:00:00 23.5 0 Calma 7 Oeste 0 1017.1 -- 93
2020-08-27 02:00:00 23.6 4 Oeste 7 Oeste 0 1017.4 -- 96
2020-08-27 01:00:00 23.7 0 Calma 5 Este 0 1017.5 -- 98
2020-08-27 00:00:00 23.8 2 Nordeste 5 Este 0 1017.5 -- 97
2020-08-26 23:00:00 23.9 0 Calma 13 Sur 0 1017.3 -- 96
2020-08-26 22:00:00 24.2 9 Sudeste 12 Sudeste 0 1016.7 -- 96
2020-08-26 21:00:00 24.4 8 Sur 16 Sur 0 1015.7 -- 95
2020-08-26 20:00:00 25.2 11 Sudoeste 19 Sudoeste 0 1015.3 -- 93
2020-08-26 19:00:00 25.2 13 Sudoeste 21 Sur 0 1015.5 -- 93
2020-08-26 18:00:00 25.4 13 Sudoeste 22 Sudoeste 0 1015.9 -- 93
2020-08-26 17:00:00 25.3 14 Sudoeste 20 Sudoeste 0 1016.1 -- 93
2020-08-26 16:00:00 25.6 13 Sur 16 Sur 0 1016.6 -- 93
2020-08-26 15:00:00 25.5 10 Sur 13 Sur 0 1017.2 -- 93
2020-08-26 14:00:00 25.6 5 Sur 8 Sur 0 1017.6 -- 91
2020-08-26 13:00:00 25 7 Sudeste 8 Sudeste 0 1018 -- 92
2020-08-26 12:00:00 24.7 5 Sudeste 8 Sur 0 1018 -- 93
2020-08-26 11:00:00 24.2 3 Sudeste 9 Sudeste 0 1017.4 -- 93
2020-08-26 10:00:00 24.1 4 Sudeste 6 Sudeste 0 1017.1 -- 90
2020-08-26 09:00:00 22.9 0 Calma 4 Este 0 1016.4 -- 85
2020-08-26 08:00:00 22.8 0 Calma 5 Noroeste 0 1016 -- 86
2020-08-26 07:00:00 22.5 2 Noroeste 10 Oeste 0 1015.6 -- 84
2020-08-26 06:00:00 22.9 0 Calma 8 Noroeste 0 1015.1 -- 83
2020-08-26 05:00:00 22.9 6 Oeste 11 Oeste 0 1015.4 -- 84
2020-08-26 04:00:00 23.6 0 Calma 6 Oeste 0 1015.9 -- 88
2020-08-26 03:00:00 23.9 0 Calma 10 Oeste 0 1015.6 -- 84
2020-08-26 02:00:00 23.7 4 Oeste 8 Oeste 0 1016.2 -- 90
2020-08-26 01:00:00 23.9 0 Calma 3 Sudeste 0 1016 -- 94
2020-08-26 00:00:00 24 0 Calma 4 Nordeste 0 1015.9 -- 95
2020-08-25 23:00:00 24.3 2 Nordeste 4 Nordeste 0 1015.9 -- 95
2020-08-25 22:00:00 24.6 0 Calma 8 Sur 0 1015 -- 92
2020-08-25 21:00:00 25.4 4 Sur 8 Sur 0 1013.9 -- 91
2020-08-25 20:00:00 26.6 5 Sur 9 Sur 0 1013.6 -- 89
2020-08-25 19:00:00 27 3 Sudeste 7 Sudeste 0 1013.6 -- 88
2020-08-25 18:00:00 27.4 6 Sudeste 10 Sudeste 0 1013.8 -- 87
2020-08-25 17:00:00 27.4 8 Sudeste 11 Sudeste 0 1014.1 -- 87
2020-08-25 16:00:00 27.4 8 Sudeste 10 Sudeste 0 1014.7 -- 86
2020-08-25 15:00:00 27.4 8 Sudeste 9 Sudeste 0 1015.2 -- 86
2020-08-25 14:00:00 27.2 4 Este 10 Sudeste 0 1015.5 -- 87
2020-08-25 13:00:00 26.5 6 Sudeste 11 Sudeste 0 1015.6 -- 91
2020-08-25 12:00:00 26.1 7 Sudeste 9 Sudeste 0 1015.5 -- 93
2020-08-25 11:00:00 25.5 4 Este 6 Este 0 1015.1 -- 95
2020-08-25 10:00:00 24.9 3 Nordeste 7 Nordeste 0 1014.9 -- 98
2020-08-25 09:00:00 24.6 3 Nordeste 8 Este 0 1014.6 -- 98
2020-08-25 08:00:00 24.3 6 Este 12 Este 0 1014.1 -- 98
2020-08-25 07:00:00 24 7 Este 11 Este 0 1013.8 -- 98
2020-08-25 06:00:00 24.3 2 Nordeste 8 Este 0 1013.8 -- 98
2020-08-25 05:00:00 24.5 3 Nordeste 11 Este 0 1014.1 -- 98
2020-08-25 04:00:00 24.5 6 Este 12 Este 0 1014.4 -- 97
2020-08-25 03:00:00 24.8 7 Este 14 Este 0 1014.7 -- 96
2020-08-25 02:00:00 24.8 9 Este 13 Este 0 1015 -- 96
2020-08-25 01:00:00 24.7 9 Este 13 Este 0 1015 -- 97
2020-08-25 00:00:00 24.7 6 Nordeste 11 Este 0 1014.9 -- 96
2020-08-24 23:00:00 25 7 Este 11 Este 0 1014.9 -- 95
2020-08-24 22:00:00 25.3 5 Nordeste 10 Este 0 1014.1 -- 92
2020-08-24 21:00:00 26 7 Este 10 Este 0 1013.4 -- 88
2020-08-24 20:00:00 27.6 7 Este 10 Este 0 1013.2 -- 84
2020-08-24 19:00:00 28.1 6 Este 12 Este 0 1013.3 -- 82
2020-08-24 18:00:00 28.8 6 Este 13 Este 0 1013.7 -- 79
2020-08-24 17:00:00 28.7 7 Este 10 Este 0 1014 -- 81
2020-08-24 16:00:00 28.2 6 Nordeste 10 Este 0 1014.5 -- 83
2020-08-24 15:00:00 27.8 6 Nordeste 11 Este 0 1015.1 -- 84
2020-08-24 14:00:00 27.9 6 Este 9 Este 0 1015.3 -- 85
2020-08-24 13:00:00 27.4 5 Este 9 Este 0 1015.9 -- 87
2020-08-24 12:00:00 26.6 3 Este 8 Este 0 1016.1 -- 90
2020-08-24 11:00:00 25.2 2 Sudeste 4 Este 0 1015.9 -- 95
2020-08-24 10:00:00 24.5 2 Este 4 Este 0 1015.5 -- 96
2020-08-24 09:00:00 24.4 0 Calma 5 Nordeste 0 1015.1 -- 97
2020-08-24 08:00:00 24.3 3 Nordeste 5 Nordeste 0 1015 -- 98
2020-08-24 07:00:00 23.9 2 Nordeste 6 Norte 0 1014.5 -- 98
2020-08-24 06:00:00 23.5 0 Calma 6 Este 0 1014.7 -- 98
2020-08-24 05:00:00 23.8 0 Calma 8 Este 0 1014.8 -- 99
2020-08-24 04:00:00 23.7 7 Este 12 Este 0 1014.9 -- 99
2020-08-24 03:00:00 23.6 9 Este 18 Este 0 1015.3 -- 98
2020-08-24 02:00:00 23.5 11 Este 18 Sudeste 0 1015.5 -- 95
2020-08-24 01:00:00 24 0 Calma 8 Este 0 1015.7 -- 95
2020-08-24 00:00:00 24.6 3 Nordeste 4 Nordeste 0 1015.6 -- 93
2020-08-23 23:00:00 25.2 0 Calma 4 Sudeste 0 1015.7 -- 90
2020-08-23 22:00:00 25.7 0 Calma 3 Sudeste 0 1015.3 -- 89
2020-08-23 21:00:00 26.2 0 Calma 4 Nordeste 0 1014.8 -- 87
2020-08-23 20:00:00 27.3 0 Calma 6 Sudeste 0 1014.8 -- 85
2020-08-23 19:00:00 27.6 4 Nordeste 9 Nordeste 0 1015.1 -- 84
2020-08-23 18:00:00 28 6 Este 14 Este 0 1015.4 -- 84
2020-08-23 17:00:00 27.4 10 Nordeste 15 Este 0 1015.9 -- 85
2020-08-23 16:00:00 27.2 10 Este 22 Este 0 1016.6 -- 87
2020-08-23 15:00:00 26.8 15 Este 23 Este 0 1017 -- 91
2020-08-23 14:00:00 25.6 13 Este 21 Este 0 1017.3 -- 93
2020-08-23 13:00:00 24.8 13 Este 27 Este 0 1018.1 -- 95
2020-08-23 12:00:00 24.6 15 Este 26 Este 0 1018 -- 95
2020-08-23 11:00:00 24.7 6 Este 13 Este 0 1017.6 -- 81
2020-08-23 10:00:00 25.2 4 Este 6 Noroeste 0 1016.9 -- 73
2020-08-23 09:00:00 24.1 3 Noroeste 9 Oeste 0 1016.5 -- 76
2020-08-23 08:00:00 23.7 0 Calma 10 Este 0 1016.3 -- 78
2020-08-23 07:00:00 23.1 4 Norte 19 Este 0 1016.3 -- 85
2020-08-23 06:00:00 23.4 7 Este 16 Este 0 1016.4 -- 83
2020-08-23 05:00:00 23.1 5 Nordeste 13 Este 0 1016.5 -- 87
2020-08-23 04:00:00 22.7 0 Calma 10 Norte 0 1016.7 -- 91
2020-08-23 03:00:00 22.4 3 Norte 6 Norte 0 1017 -- 94
2020-08-23 02:00:00 22.2 3 Norte 9 Nordeste 0 1017.2 -- 96
2020-08-23 01:00:00 22.1 4 Nordeste 9 Este 0 1017.1 -- 96
2020-08-23 00:00:00 22.4 3 Nordeste 15 Este 0 1016.8 -- 94
2020-08-22 23:00:00 22.4 8 Nordeste 10 Nordeste 0 1016.9 -- 93
2020-08-22 22:00:00 22.4 6 Este 10 Este 0 1016.4 -- 93
2020-08-22 21:00:00 22.5 4 Este 16 Sudeste 0 1015.6 -- 90
2020-08-22 20:00:00 24.1 9 Nordeste 14 Norte 0 1014.6 -- 87
2020-08-22 19:00:00 25.7 7 Nordeste 17 Nordeste 0 1014.7 -- 80
2020-08-22 18:00:00 28.9 8 Nordeste 18 Oeste 0 1015.1 -- 62
2020-08-22 17:00:00 32 4 Oeste 15 Sudoeste 0 1015.1 -- 48
2020-08-22 16:00:00 31.1 3 Sudoeste 18 Sudoeste 0 1015.8 -- 52
2020-08-22 15:00:00 28.8 5 Sudoeste 18 Sudoeste 0 1016.3 -- 61
2020-08-22 14:00:00 22.9 8 Sudoeste 15 Sur 0 1016.6 -- 90
2020-08-22 13:00:00 21.8 5 Sudoeste 15 Sudoeste 0 1016.9 -- 95
2020-08-22 12:00:00 22.7 2 Sudeste 8 Este 0 1017 -- 92
2020-08-22 11:00:00 22.3 0 Calma 8 Sur 0 1016.7 -- 95
2020-08-22 10:00:00 21 3 Sur 7 Sur 0 1016.1 -- 97
2020-08-22 09:00:00 21.2 0 Calma 6 Nordeste 0 1015.9 -- 97
2020-08-22 08:00:00 20.9 3 Nordeste 9 Sur 0 1015.6 -- 96
2020-08-22 07:00:00 20.7 2 Sudoeste 4 Sudoeste 0 1015.2 -- 97
2020-08-22 06:00:00 20.9 0 Calma 5 Sudoeste 0 1015.1 -- 98
2020-08-22 05:00:00 20.7 0 Calma 6 Sudoeste 0 1015.1 -- 98
2020-08-22 04:00:00 20.8 0 Calma 8 Sudoeste 0 1015.2 -- 98
2020-08-22 03:00:00 20.7 2 Sudoeste 6 Sur 0 1015.2 -- 96
2020-08-22 02:00:00 21.7 2 Sudeste 8 Nordeste 0 1015.5 -- 95
2020-08-22 01:00:00 21.7 2 Nordeste 8 Nordeste 0 1015.3 -- 95
2020-08-22 00:00:00 21.7 2 Nordeste 9 Nordeste 0 1015 -- 94
2020-08-21 23:00:00 22.3 0 Calma 13 Este 0 1014.4 -- 91
2020-08-21 22:00:00 22.4 6 Nordeste 15 Nordeste 0 1013.6 -- 90
2020-08-21 21:00:00 23.9 10 Nordeste 15 Nordeste 0 1012.4 -- 82
2020-08-21 20:00:00 27.4 3 Sudoeste 21 Sur 0 1012.3 -- 68
2020-08-21 19:00:00 25.6 14 Sudoeste 24 Sudoeste 0 1012.4 -- 76
2020-08-21 18:00:00 26.9 8 Sudoeste 26 Sur 0 1012.3 -- 66
2020-08-21 17:00:00 31.7 6 Oeste 22 Oeste 0 1012.3 -- 49
2020-08-21 16:00:00 29 5 Sudoeste 23 Sudoeste 0 1012.7 -- 48
2020-08-21 15:00:00 25.7 12 Sudoeste 18 Sur 0 1013.2 -- 68
2020-08-21 14:00:00 28.4 4 Sudoeste 16 Sudoeste 0 1013.4 -- 47
2020-08-21 13:00:00 23.8 3 Sudoeste 16 Sur 0 1013.3 -- 76
2020-08-21 12:00:00 22.5 4 Sudoeste 11 Sudoeste 0 1013.2 -- 79
2020-08-21 11:00:00 22.7 3 Este 9 Nordeste 0 1012.9 -- 76
2020-08-21 10:00:00 22.2 0 Calma 10 Sudoeste 0 1012.3 -- 68
2020-08-21 09:00:00 21.3 0 Calma 7 Oeste 0 1012 -- 62
2020-08-21 08:00:00 21.2 0 Calma 8 Oeste 0 1011.5 -- 65
2020-08-21 07:00:00 21 2 Sudoeste 7 Sudoeste 0 1011 -- 63
2020-08-21 06:00:00 20.1 3 Oeste 6 Oeste 0 1010.6 -- 73
2020-08-21 05:00:00 20.5 0 Calma 6 Oeste 0 1010.6 -- 74
2020-08-21 04:00:00 20.4 0 Calma 2 Sur 0 1010.8 -- 98
2020-08-21 03:00:00 20.5 0 Calma 5 Norte 0 1011 -- 98
2020-08-21 02:00:00 21.4 4 Norte 14 Nordeste 0 1011 -- 98
2020-08-21 01:00:00 21.5 8 Nordeste 20 Nordeste 0 1011 -- 98
2020-08-21 00:00:00 22.6 5 Nordeste 11 Nordeste 0 1010.5 -- 90